Anna Desgagnes — VCWS — position and weather

sailwx.info

Track history (hours):
 
Tides and Currents Weather Stations Pressure Air Temp Water Temp Dewpoint Dewpoint Depression Visibility Wind Speed Wind Dir Waves Ship Positions

Anna Desgagnes

Last reported at 2016-Aug-27 23:00 UTC. Time now 2016-Aug-28 00:28 UTC.
Position N 72°18' W 073°42'.

Length 173 m; draft 8.6 m.

Type: Ship. MMSI: 316297000.

Wind from 280 at 2 knots

Barometer 1020.7 mb
Air temperature 3.6 ° C
Dewpoint 3.6 ° C
Water temperature 6.4 ° C

Date/timePositionNaut miles runAvg speedWind from/ knotsBaromVisibWave heightAir tempDewpointWater temp
2016-Aug-27 23:00N 72°18' W 073°42'2010.2 280 / 21020.7 3.6 3.6 6.4
2016-Aug-27 21:00N 72°06' W 072°48'3210.5 030 / 21019.9 8.0 7.4 8.5
2016-Aug-27 18:00N 71°48' W 071°24'8 8.2 290 / 51018.9 8.2 7.8 8.4
2016-Aug-27 17:00N 71°42' W 071°06'1414.2 290 / 71018.5 7.7 7.6 6.8
2016-Aug-27 16:00N 71°30' W 070°42'10 9.7 300 / 41018.5 7.5 7.5 7.2
2016-Aug-27 15:00N 71°24' W 070°18'1111.3 260 / 51018.2 6.9 6.9 7.5
2016-Aug-27 14:00N 71°18' W 069°48'1111.4 260 / 51017.9 7.1 7.0 7.7
2016-Aug-27 13:00N 71°12' W 069°18'10 9.8 270 / 41017.7 6.6 6.6 7.3
2016-Aug-27 12:00N 71°06' W 068°54'1515.5 250 / 41017.5 6.3 6.3 7.5
2016-Aug-27 11:00N 70°54' W 068°24'7 7.2 250 / 41017.0 5.8 5.7 7.1
2016-Aug-27 10:00N 70°48' W 068°12'7 7.2 160 / 11016.9 5.0 5.0 4.7
2016-Aug-27 09:00N 70°42' W 068°00'1312.6 240 / 41016.6 5.5 5.5 5.4
2016-Aug-27 08:00N 70°30' W 067°48'9 8.5 250 / 41016.3 5.4 5.4 6.7
2016-Aug-27 07:00N 70°24' W 068°06'9 8.5 1016.1 5.8 5.7 6.2
2016-Aug-27 06:00N 70°18' W 068°24'1312.7 050 / 61015.7 6.4 6.4 6.9
2016-Aug-27 05:00N 70°30' W 068°36'0 0.0 030 / 31015.8 7.1 7.1
2016-Aug-27 03:00N 70°30' W 068°36'0 0.0 280 / 11015.5 7.5 7.0
2016-Aug-27 02:00N 70°30' W 068°36'0 0.0 1015.5 7.1 6.6
2016-Aug-27 01:00N 70°30' W 068°36'0 0.0 250 / 11015.4 7.3 6.9
2016-Aug-27 00:00N 70°30' W 068°36'0 0.0 1015.3 6.7 6.5
2016-Aug-26 23:00N 70°30' W 068°36'0 0.0 190 / 21014.9 7.3 6.6
2016-Aug-26 22:00N 70°30' W 068°36'0 0.0 200 / 41015.0 7.2 6.7
2016-Aug-26 21:00N 70°30' W 068°36'0 0.0 180 / 41014.6 7.0 6.7
2016-Aug-26 19:00N 70°30' W 068°36'0 0.0 170 / 51014.0 7.0 6.8 2.8
2016-Aug-26 18:00N 70°30' W 068°36'0 0.0 150 / 31013.8 7.6 6.9 2.5
2016-Aug-26 17:00N 70°30' W 068°36'15 7.6 010 / 81013.3 9.0 6.7 4.2
2016-Aug-26 15:00N 70°24' W 067°54'1010.1 330 / 41013.3 6.1 6.1 6.6
2016-Aug-26 14:00N 70°18' W 067°30'1010.1 230 / 31013.2 5.8 5.8 5.5
2016-Aug-26 13:00N 70°18' W 067°00'1414.5 140 / 21013.0 5.5 5.5 5.4
2016-Aug-26 12:00N 70°06' W 066°36'1313.5 130 / 51013.0 5.0 5.0 5.5
2016-Aug-26 11:00N 69°54' W 066°18'1010.2 150 / 71012.6 4.3 4.3 4.3
2016-Aug-26 10:00N 69°48' W 065°54'1010.2 160 / 91013.8 3.4 3.4 4.3
2016-Aug-26 09:00N 69°42' W 065°30'6 6.4 180 / 91013.2 3.0 3.0 4.0
2016-Aug-26 08:00N 69°36' W 065°24'1212.2 180 / 101012.3 2.5 2.5 3.7
2016-Aug-26 07:00N 69°24' W 065°18'2713.6 170 / 121012.2 2.4 2.4 3.3
2016-Aug-26 05:00N 69°00' W 064°42'2010.0 170 / 81012.0 2.3 2.3 3.3
2016-Aug-26 03:00N 68°42' W 064°18'1312.8 100 / 61012.9 1.7 1.7 3.1
2016-Aug-26 02:00N 68°30' W 064°06'7 7.4 070 / 51012.8 2.0 2.0 3.1
2016-Aug-26 01:00N 68°24' W 063°54'1212.2 110 / 71011.3 2.1 2.0 2.4
2016-Aug-26 00:00N 68°12' W 063°48'2412.2 110 / 71011.2 3.0 3.0 3.3
2016-Aug-25 22:00N 67°48' W 063°36'6 6.4 100 / 61010.0 3.4 3.4 2.5
2016-Aug-25 21:00N 67°42' W 063°30'17 8.3 080 / 101009.5 3.7 3.7 2.9
2016-Aug-25 19:00N 67°30' W 064°00'6 2.1 200 / 111008.3 6.8 5.2 3.5
2016-Aug-25 16:00N 67°36' W 064°06'0 0.0 140 / 121008.3 6.3 4.8
2016-Aug-25 14:00N 67°36' W 064°06'0 0.0 140 / 61008.6 6.6 4.6
2016-Aug-25 12:00N 67°36' W 064°06'0 0.0 160 / 91008.1 6.4 4.6
2016-Aug-25 11:00N 67°36' W 064°06'0 0.0 160 / 91008.1 5.3 4.3
2016-Aug-25 10:00N 67°36' W 064°06'0 0.0 170 / 81007.6 5.1 4.0
2016-Aug-25 09:00N 67°36' W 064°06'0 0.0 150 / 51007.1 4.9 3.9
2016-Aug-25 08:00N 67°36' W 064°06'0 0.0 130 / 51007.0 4.9 3.9
2016-Aug-25 04:00N 67°36' W 064°06'0 0.0 160 / 81005.7 4.9 4.0
2016-Aug-25 03:00N 67°36' W 064°06'0 0.0 150 / 71005.7 4.4 3.9
2016-Aug-25 02:00N 67°36' W 064°06'0 0.0 130 / 51005.6 4.1 3.8
2016-Aug-25 00:00N 67°36' W 064°06'0 0.0 150 / 21005.3 4.6 4.2
2016-Aug-24 23:00N 67°36' W 064°06'0 0.0 030 / 21005.2 3.2 3.2
2016-Aug-24 22:00N 67°36' W 064°06'0 0.0 030 / 21005.4 3.4 3.4
2016-Aug-24 21:00N 67°36' W 064°06'0 0.0 350 / 11005.4 3.3 3.2
2016-Aug-24 20:00N 67°36' W 064°06'0 0.0 060 / 31005.2 3.1 3.1
2016-Aug-24 18:00N 67°36' W 064°06'6 6.0 340 / 31005.5 4.2 4.0 1.9
2016-Aug-24 17:00N 67°30' W 064°06'7 6.9 030 / 71005.7 4.5 4.5 2.8
2016-Aug-24 16:00N 67°30' W 063°48'16 8.0 090 / 51005.9 2.4 2.4 3.5
2016-Aug-24 14:00N 67°30' W 063°06'1413.8 090 / 41006.7 1.9 1.9 2.7
2016-Aug-24 13:00N 67°30' W 062°30'1413.8 120 / 41007.0 2.1 2.0 2.4
2016-Aug-24 12:00N 67°30' W 061°54'4213.9 130 / 101007.2 2.7 2.7 2.0
2016-Aug-24 09:00N 66°54' W 061°00'19 9.3 290 / 31007.4 2.0 2.0 2.9
2016-Aug-24 07:00N 66°36' W 060°48'1414.0 340 / 131006.8 1.8 1.7 3.1
2016-Aug-24 06:00N 66°24' W 061°06'1212.0 010 / 171006.4 2.7 2.6 3.3
2016-Aug-24 05:00N 66°12' W 061°06'18112.9 020 / 121006.1 3.7 3.7 3.5
2016-Aug-23 15:00N 63°12' W 061°48'6713.3 200 / 51006.2 5.9 5.0 3.8
2016-Aug-23 10:00N 62°06' W 062°06'1212.3 230 / 111006.6 6.2 5.4 5.8
2016-Aug-23 09:00N 61°54' W 062°12'1212.3 230 / 121006.7 6.6 5.8 6.4
2016-Aug-23 08:00N 61°42' W 062°18'2512.7 230 / 131006.9 6.2 5.3 2.9
2016-Aug-23 06:00N 61°18' W 062°36'1212.3 230 / 141006.3 7.3 6.0 3.2
2016-Aug-23 05:00N 61°06' W 062°42'1212.0 240 / 111006.2 7.1 5.9 2.8
2016-Aug-23 04:00N 60°54' W 062°42'1212.4 260 / 91005.8 7.9 6.3 2.7
2016-Aug-23 03:00N 60°42' W 062°48'1212.0 260 / 81005.8 8.5 6.8 2.1
2016-Aug-23 02:00N 60°30' W 062°48'1212.0 250 / 41005.2 7.8 6.9 2.0
2016-Aug-23 01:00N 60°18' W 062°48'4912.2 290 / 61004.8 10.0 8.2 3.5
2016-Aug-22 21:00N 59°30' W 062°30'7 6.7 030 / 91002.1 8.2 7.7 5.5
2016-Aug-22 20:00N 59°24' W 062°24'6210.4 280 / 51001.1 11.510.4 5.7
2016-Aug-22 14:00N 58°30' W 061°24'1111.2 140 / 201000.7 6.0 6.0 5.5
2016-Aug-22 13:00N 58°24' W 061°06'9 8.7 140 / 211001.6 5.3 5.3 3.4
2016-Aug-22 12:00N 58°18' W 060°54'3712.4 140 / 251001.8 5.2 5.2 3.1
2016-Aug-22 09:00N 57°54' W 060°00'1111.3 130 / 241005.6 7.6 7.6 3.5
2016-Aug-22 08:00N 57°48' W 059°42'1111.3 120 / 241006.3 8.8 8.8 7.0
2016-Aug-22 07:00N 57°42' W 059°24'9 8.8 120 / 221007.2 9.1 9.1 6.3
2016-Aug-22 06:00N 57°36' W 059°12'1111.4 120 / 221008.1 9.2 9.2 7.0
2016-Aug-22 05:00N 57°30' W 058°54'2010.1 130 / 201008.9 8.9 8.9 7.4
2016-Aug-22 03:00N 57°18' W 058°24'1111.4 120 / 201010.6 10.110.1 8.9
2016-Aug-22 02:00N 57°12' W 058°06'2211.1 120 / 201011.1 10.410.4 9.7
2016-Aug-22 00:00N 56°54' W 057°42'2613.0 120 / 151011.9 9.3 9.2 7.8
2016-Aug-21 22:00N 56°30' W 057°24'1413.7 130 / 141012.0 9.2 9.2 9.8
2016-Aug-21 21:00N 56°18' W 057°12'1212.5 110 / 131012.3 9.1 9.0 8.7
2016-Aug-21 20:00N 56°06' W 057°06'1413.7 120 / 121012.4 7.9 7.7 7.2
2016-Aug-21 19:00N 55°54' W 056°54'1212.5 110 / 91012.6 8.6 8.1 8.0
2016-Aug-21 18:00N 55°42' W 056°48'3812.8 110 / 101012.4 8.3 7.8 8.0
2016-Aug-21 15:00N 55°06' W 056°24'1212.5 120 / 81012.3 8.2 7.8 7.2
2016-Aug-21 14:00N 54°54' W 056°18'1212.5 170 / 121012.1 10.9 9.9 7.6
2016-Aug-21 13:00N 54°42' W 056°12'7 6.9 180 / 141012.4 11.110.2 7.6
2016-Aug-21 12:00N 54°36' W 056°06'1413.9 180 / 121012.3 12.811.6 7.3
2016-Aug-21 11:00N 54°24' W 055°54'1818.3 230 / 51012.7 11.710.6 7.3
2016-Aug-21 10:00N 54°06' W 055°48'1413.9 220 / 171012.3 12.310.6 8.1
2016-Aug-21 09:00N 53°54' W 055°36'3712.2 220 / 171012.5 13.010.9 7.9
2016-Aug-21 06:00N 53°18' W 055°24'3015.0 190 / 141014.0 13.011.0 8.9
2016-Aug-21 04:00N 52°48' W 055°24'2412.1 240 / 71014.5 13.511.1 9.4
2016-Aug-21 02:00N 52°24' W 055°18'1212.0 200 / 151015.4 15.611.9 9.2
2016-Aug-21 01:00N 52°12' W 055°18'4013.2 210 / 171015.8 12.210.210.2
2016-Aug-20 22:00N 51°42' W 056°00'1919.1 240 / 231016.6 15.613.415.5
2016-Aug-20 21:00N 51°30' W 056°24'1312.7 250 / 211016.9 14.512.612.8
2016-Aug-20 20:00N 51°24' W 056°42'1616.1 220 / 151017.1 17.114.014.8
2016-Aug-20 19:00N 51°18' W 057°06'1616.5 220 / 211017.2 17.914.416.9
2016-Aug-20 18:00N 51°06' W 057°24'1716.5 220 / 181017.7 17.714.817.3
2016-Aug-20 17:00N 50°54' W 057°42'4013.4 220 / 201018.2 16.513.916.0
2016-Aug-20 14:00N 50°24' W 058°24'1716.6 220 / 141019.5 17.513.317.2
2016-Aug-20 13:00N 50°12' W 058°42'10 9.8 220 / 111019.7 16.312.317.3
2016-Aug-20 12:00N 50°06' W 058°54'1517.6 190 / 81019.6 15.611.816.5
2016-Aug-20 11:10N 49°56' W 059°11'213.1
2016-Aug-20 11:00N 49°54' W 059°12'1515.5 170 / 81018.9 15.212.116.6
2016-Aug-20 10:00N 49°54' W 059°36'2713.5 170 / 81018.8 15.513.616.9
2016-Aug-20 08:00N 49°54' W 060°18'1211.6 050 / 21017.9 15.014.515.3
2016-Aug-20 07:00N 49°54' W 060°36'2713.5 010 / 51017.8 13.913.514.8
2016-Aug-20 05:00N 49°54' W 061°18'1515.5 350 / 81017.2 13.212.813.5
2016-Aug-20 04:00N 49°54' W 061°42'1211.6 350 / 111017.5 13.112.412.2
2016-Aug-20 03:00N 49°54' W 062°00'1515.5 350 / 81017.2 13.912.514.1
2016-Aug-20 02:00N 49°54' W 062°24'1211.6 010 / 71016.8 13.513.113.8
2016-Aug-20 01:00N 49°54' W 062°42'3115.5 060 / 51016.5 15.013.215.2
2016-Aug-19 23:00N 49°54' W 063°30'3115.7 080 / 31015.7 15.113.013.3
2016-Aug-19 21:00N 50°00' W 064°18'5313.4 070 / 101014.5 16.113.715.2
2016-Aug-19 17:00N 49°42' W 065°36'3014.9 070 / 81013.6 14.713.613.6
2016-Aug-19 15:00N 49°30' W 066°18'1313.2 050 / 81013.0 15.814.215.3
2016-Aug-19 14:00N 49°24' W 066°36'1313.2 350 / 121012.3 16.113.014.4
2016-Aug-19 13:00N 49°18' W 066°54'1313.2 340 / 151011.4 16.011.914.1
2016-Aug-19 12:00N 49°12' W 067°12'1313.2 310 / 121011.4 15.411.1 9.7
2016-Aug-19 11:00N 49°06' W 067°30'1716.8 300 / 161011.1 15.011.613.7
2016-Aug-19 10:00N 48°54' W 067°48'1313.3 290 / 151010.8 15.011.915.0
2016-Aug-19 09:00N 48°48' W 068°06'2713.3 290 / 171010.7 14.511.013.3
2016-Aug-19 07:00N 48°36' W 068°42'1716.9 290 / 141010.7 15.910.211.4
2016-Aug-19 06:00N 48°24' W 069°00'1313.4 290 / 91011.0 17.010.111.7
2016-Aug-19 05:00N 48°18' W 069°18'1010.0 320 / 101011.5 17.710.4 9.7
2016-Aug-19 04:00N 48°12' W 069°30'2713.4 290 / 131011.1 19.412.2 8.6
2016-Aug-19 02:00N 47°48' W 069°48'1717.1 310 / 111011.1 21.411.511.6
2016-Aug-19 01:00N 47°36' W 070°06'1717.1 270 / 81012.3 21.010.610.1
2016-Aug-19 00:00N 47°24' W 070°24'3612.1 320 / 101011.5 22.910.413.1
2016-Aug-18 21:00N 46°54' W 070°54'1010.2 260 / 171010.7 26.811.623.5
2016-Aug-18 20:00N 46°48' W 071°06'5513.7 270 / 171010.9 26.811.423.7
2016-Aug-18 16:00N 46°24' W 072°18'1413.8 320 / 10 23.016.323.7
2016-Aug-18 15:00N 46°18' W 072°36'4 8.9 300 / 9 22.917.023.8
2016-Aug-18 14:32N 46°16' W 072°41'1414.3
2016-Aug-18 13:33N 46°08' W 072°57'611.0
2016-Aug-18 13:00N 46°06' W 073°06'819.1 290 / 4 21.018.923.9
2016-Aug-18 12:34N 45°59' W 073°11'711.5
2016-Aug-18 12:00N 45°54' W 073°18'817.7 260 / 6 20.417.624.2
2016-Aug-18 11:34N 45°47' W 073°22'713.2
2016-Aug-18 11:00N 45°42' W 073°30'511.7 240 / 9 21.316.724.0
2016-Aug-18 10:33N 45°37' W 073°30'1 1.6
2016-Aug-18 10:00N 45°36' W 073°30'1 2.1 230 / 4 21.216.7
2016-Aug-18 09:29N 45°37' W 073°30'1 2.2
2016-Aug-18 09:00N 45°36' W 073°30'1 2.1 230 / 7 21.816.4
2016-Aug-18 08:29N 45°37' W 073°30'0 0.0
2016-Aug-18 07:26N 45°37' W 073°30'0 0.0
2016-Aug-18 06:32N 45°37' W 073°30'1 2.0
2016-Aug-18 06:00N 45°36' W 073°30'1 2.1 240 / 6 22.817.9
2016-Aug-18 05:29N 45°37' W 073°30'0 0.0
2016-Aug-18 04:29N 45°37' W 073°30'1 2.2
2016-Aug-18 04:00N 45°36' W 073°30'1 2.1 230 / 8 24.216.8
2016-Aug-18 03:29N 45°37' W 073°30'0 0.0
2016-Aug-18 02:29N 45°37' W 073°30'0 0.0
2016-Aug-18 01:17N 45°37' W 073°30'1 3.6
2016-Aug-18 01:00N 45°36' W 073°30'1 2.4 240 / 7 25.116.4
2016-Aug-18 00:32N 45°37' W 073°30'0 0.0
2016-Aug-17 23:32N 45°37' W 073°30'1 2.0
2016-Aug-17 23:00N 45°36' W 073°30'   250 / 12 26.516.1
Track history (hours):
 
Tides and Currents Weather Stations Pressure Air Temp Water Temp Dewpoint Dewpoint Depression Visibility Wind Speed Wind Dir Waves Ship Positions

Anna Desgagnes

Last reported at 2016-Aug-27 23:00 UTC. Time now 2016-Aug-28 00:28 UTC.
Position N 72°18' W 073°42'.

Length 173 m; draft 8.6 m.

Type: Ship. MMSI: 316297000.

Wind from 280 at 2 knots

Barometer 1020.7 mb
Air temperature 3.6 ° C
Dewpoint 3.6 ° C
Water temperature 6.4 ° C

Date/timePositionNaut miles runAvg speedWind from/ knotsBaromVisibWave heightAir tempDewpointWater temp
2016-Aug-27 23:00N 72°18' W 073°42'2010.2 280 / 21020.7 3.6 3.6 6.4
2016-Aug-27 21:00N 72°06' W 072°48'3210.5 030 / 21019.9 8.0 7.4 8.5
2016-Aug-27 18:00N 71°48' W 071°24'8 8.2 290 / 51018.9 8.2 7.8 8.4
2016-Aug-27 17:00N 71°42' W 071°06'1414.2 290 / 71018.5 7.7 7.6 6.8
2016-Aug-27 16:00N 71°30' W 070°42'10 9.7 300 / 41018.5 7.5 7.5 7.2
2016-Aug-27 15:00N 71°24' W 070°18'1111.3 260 / 51018.2 6.9 6.9 7.5
2016-Aug-27 14:00N 71°18' W 069°48'1111.4 260 / 51017.9 7.1 7.0 7.7
2016-Aug-27 13:00N 71°12' W 069°18'10 9.8 270 / 41017.7 6.6 6.6 7.3
2016-Aug-27 12:00N 71°06' W 068°54'1515.5 250 / 41017.5 6.3 6.3 7.5
2016-Aug-27 11:00N 70°54' W 068°24'7 7.2 250 / 41017.0 5.8 5.7 7.1
2016-Aug-27 10:00N 70°48' W 068°12'7 7.2 160 / 11016.9 5.0 5.0 4.7
2016-Aug-27 09:00N 70°42' W 068°00'1312.6 240 / 41016.6 5.5 5.5 5.4
2016-Aug-27 08:00N 70°30' W 067°48'9 8.5 250 / 41016.3 5.4 5.4 6.7
2016-Aug-27 07:00N 70°24' W 068°06'9 8.5 1016.1 5.8 5.7 6.2
2016-Aug-27 06:00N 70°18' W 068°24'1312.7 050 / 61015.7 6.4 6.4 6.9
2016-Aug-27 05:00N 70°30' W 068°36'0 0.0 030 / 31015.8 7.1 7.1
2016-Aug-27 03:00N 70°30' W 068°36'0 0.0 280 / 11015.5 7.5 7.0
2016-Aug-27 02:00N 70°30' W 068°36'0 0.0 1015.5 7.1 6.6
2016-Aug-27 01:00N 70°30' W 068°36'0 0.0 250 / 11015.4 7.3 6.9
2016-Aug-27 00:00N 70°30' W 068°36'0 0.0 1015.3 6.7 6.5
2016-Aug-26 23:00N 70°30' W 068°36'0 0.0 190 / 21014.9 7.3 6.6
2016-Aug-26 22:00N 70°30' W 068°36'0 0.0 200 / 41015.0 7.2 6.7
2016-Aug-26 21:00N 70°30' W 068°36'0 0.0 180 / 41014.6 7.0 6.7
2016-Aug-26 19:00N 70°30' W 068°36'0 0.0 170 / 51014.0 7.0 6.8 2.8
2016-Aug-26 18:00N 70°30' W 068°36'0 0.0 150 / 31013.8 7.6 6.9 2.5
2016-Aug-26 17:00N 70°30' W 068°36'15 7.6 010 / 81013.3 9.0 6.7 4.2
2016-Aug-26 15:00N 70°24' W 067°54'1010.1 330 / 41013.3 6.1 6.1 6.6
2016-Aug-26 14:00N 70°18' W 067°30'1010.1 230 / 31013.2 5.8 5.8 5.5
2016-Aug-26 13:00N 70°18' W 067°00'1414.5 140 / 21013.0 5.5 5.5 5.4
2016-Aug-26 12:00N 70°06' W 066°36'1313.5 130 / 51013.0 5.0 5.0 5.5
2016-Aug-26 11:00N 69°54' W 066°18'1010.2 150 / 71012.6 4.3 4.3 4.3
2016-Aug-26 10:00N 69°48' W 065°54'1010.2 160 / 91013.8 3.4 3.4 4.3
2016-Aug-26 09:00N 69°42' W 065°30'6 6.4 180 / 91013.2 3.0 3.0 4.0
2016-Aug-26 08:00N 69°36' W 065°24'1212.2 180 / 101012.3 2.5 2.5 3.7
2016-Aug-26 07:00N 69°24' W 065°18'2713.6 170 / 121012.2 2.4 2.4 3.3
2016-Aug-26 05:00N 69°00' W 064°42'2010.0 170 / 81012.0 2.3 2.3 3.3
2016-Aug-26 03:00N 68°42' W 064°18'1312.8 100 / 61012.9 1.7 1.7 3.1
2016-Aug-26 02:00N 68°30' W 064°06'7 7.4 070 / 51012.8 2.0 2.0 3.1
2016-Aug-26 01:00N 68°24' W 063°54'1212.2 110 / 71011.3 2.1 2.0 2.4
2016-Aug-26 00:00N 68°12' W 063°48'2412.2 110 / 71011.2 3.0 3.0 3.3
2016-Aug-25 22:00N 67°48' W 063°36'6 6.4 100 / 61010.0 3.4 3.4 2.5
2016-Aug-25 21:00N 67°42' W 063°30'17 8.3 080 / 101009.5 3.7 3.7 2.9
2016-Aug-25 19:00N 67°30' W 064°00'6 2.1 200 / 111008.3 6.8 5.2 3.5
2016-Aug-25 16:00N 67°36' W 064°06'0 0.0 140 / 121008.3 6.3 4.8
2016-Aug-25 14:00N 67°36' W 064°06'0 0.0 140 / 61008.6 6.6 4.6
2016-Aug-25 12:00N 67°36' W 064°06'0 0.0 160 / 91008.1 6.4 4.6
2016-Aug-25 11:00N 67°36' W 064°06'0 0.0 160 / 91008.1 5.3 4.3
2016-Aug-25 10:00N 67°36' W 064°06'0 0.0 170 / 81007.6 5.1 4.0
2016-Aug-25 09:00N 67°36' W 064°06'0 0.0 150 / 51007.1 4.9 3.9
2016-Aug-25 08:00N 67°36' W 064°06'0 0.0 130 / 51007.0 4.9 3.9
2016-Aug-25 04:00N 67°36' W 064°06'0 0.0 160 / 81005.7 4.9 4.0
2016-Aug-25 03:00N 67°36' W 064°06'0 0.0 150 / 71005.7 4.4 3.9
2016-Aug-25 02:00N 67°36' W 064°06'0 0.0 130 / 51005.6 4.1 3.8
2016-Aug-25 00:00N 67°36' W 064°06'0 0.0 150 / 21005.3 4.6 4.2
2016-Aug-24 23:00N 67°36' W 064°06'0 0.0 030 / 21005.2 3.2 3.2
2016-Aug-24 22:00N 67°36' W 064°06'0 0.0 030 / 21005.4 3.4 3.4
2016-Aug-24 21:00N 67°36' W 064°06'0 0.0 350 / 11005.4 3.3 3.2
2016-Aug-24 20:00N 67°36' W 064°06'0 0.0 060 / 31005.2 3.1 3.1
2016-Aug-24 18:00N 67°36' W 064°06'6 6.0 340 / 31005.5 4.2 4.0 1.9
2016-Aug-24 17:00N 67°30' W 064°06'7 6.9 030 / 71005.7 4.5 4.5 2.8
2016-Aug-24 16:00N 67°30' W 063°48'16 8.0 090 / 51005.9 2.4 2.4 3.5
2016-Aug-24 14:00N 67°30' W 063°06'1413.8 090 / 41006.7 1.9 1.9 2.7
2016-Aug-24 13:00N 67°30' W 062°30'1413.8 120 / 41007.0 2.1 2.0 2.4
2016-Aug-24 12:00N 67°30' W 061°54'4213.9 130 / 101007.2 2.7 2.7 2.0
2016-Aug-24 09:00N 66°54' W 061°00'19 9.3 290 / 31007.4 2.0 2.0 2.9
2016-Aug-24 07:00N 66°36' W 060°48'1414.0 340 / 131006.8 1.8 1.7 3.1
2016-Aug-24 06:00N 66°24' W 061°06'1212.0 010 / 171006.4 2.7 2.6 3.3
2016-Aug-24 05:00N 66°12' W 061°06'18112.9 020 / 121006.1 3.7 3.7 3.5
2016-Aug-23 15:00N 63°12' W 061°48'6713.3 200 / 51006.2 5.9 5.0 3.8
2016-Aug-23 10:00N 62°06' W 062°06'1212.3 230 / 111006.6 6.2 5.4 5.8
2016-Aug-23 09:00N 61°54' W 062°12'1212.3 230 / 121006.7 6.6 5.8 6.4
2016-Aug-23 08:00N 61°42' W 062°18'2512.7 230 / 131006.9 6.2 5.3 2.9
2016-Aug-23 06:00N 61°18' W 062°36'1212.3 230 / 141006.3 7.3 6.0 3.2
2016-Aug-23 05:00N 61°06' W 062°42'1212.0 240 / 111006.2 7.1 5.9 2.8
2016-Aug-23 04:00N 60°54' W 062°42'1212.4 260 / 91005.8 7.9 6.3 2.7
2016-Aug-23 03:00N 60°42' W 062°48'1212.0 260 / 81005.8 8.5 6.8 2.1
2016-Aug-23 02:00N 60°30' W 062°48'1212.0 250 / 41005.2 7.8 6.9 2.0
2016-Aug-23 01:00N 60°18' W 062°48'4912.2 290 / 61004.8 10.0 8.2 3.5
2016-Aug-22 21:00N 59°30' W 062°30'7 6.7 030 / 91002.1 8.2 7.7 5.5
2016-Aug-22 20:00N 59°24' W 062°24'6210.4 280 / 51001.1 11.510.4 5.7
2016-Aug-22 14:00N 58°30' W 061°24'1111.2 140 / 201000.7 6.0 6.0 5.5
2016-Aug-22 13:00N 58°24' W 061°06'9 8.7 140 / 211001.6 5.3 5.3 3.4
2016-Aug-22 12:00N 58°18' W 060°54'3712.4 140 / 251001.8 5.2 5.2 3.1
2016-Aug-22 09:00N 57°54' W 060°00'1111.3 130 / 241005.6 7.6 7.6 3.5
2016-Aug-22 08:00N 57°48' W 059°42'1111.3 120 / 241006.3 8.8 8.8 7.0
2016-Aug-22 07:00N 57°42' W 059°24'9 8.8 120 / 221007.2 9.1 9.1 6.3
2016-Aug-22 06:00N 57°36' W 059°12'1111.4 120 / 221008.1 9.2 9.2 7.0
2016-Aug-22 05:00N 57°30' W 058°54'2010.1 130 / 201008.9 8.9 8.9 7.4
2016-Aug-22 03:00N 57°18' W 058°24'1111.4 120 / 201010.6 10.110.1 8.9
2016-Aug-22 02:00N 57°12' W 058°06'2211.1 120 / 201011.1 10.410.4 9.7
2016-Aug-22 00:00N 56°54' W 057°42'2613.0 120 / 151011.9 9.3 9.2 7.8
2016-Aug-21 22:00N 56°30' W 057°24'1413.7 130 / 141012.0 9.2 9.2 9.8
2016-Aug-21 21:00N 56°18' W 057°12'1212.5 110 / 131012.3 9.1 9.0 8.7
2016-Aug-21 20:00N 56°06' W 057°06'1413.7 120 / 121012.4 7.9 7.7 7.2
2016-Aug-21 19:00N 55°54' W 056°54'1212.5 110 / 91012.6 8.6 8.1 8.0
2016-Aug-21 18:00N 55°42' W 056°48'3812.8 110 / 101012.4 8.3 7.8 8.0
2016-Aug-21 15:00N 55°06' W 056°24'1212.5 120 / 81012.3 8.2 7.8 7.2
2016-Aug-21 14:00N 54°54' W 056°18'1212.5 170 / 121012.1 10.9 9.9 7.6
2016-Aug-21 13:00N 54°42' W 056°12'7 6.9 180 / 141012.4 11.110.2 7.6
2016-Aug-21 12:00N 54°36' W 056°06'1413.9 180 / 121012.3 12.811.6 7.3
2016-Aug-21 11:00N 54°24' W 055°54'1818.3 230 / 51012.7 11.710.6 7.3
2016-Aug-21 10:00N 54°06' W 055°48'1413.9 220 / 171012.3 12.310.6 8.1
2016-Aug-21 09:00N 53°54' W 055°36'3712.2 220 / 171012.5 13.010.9 7.9
2016-Aug-21 06:00N 53°18' W 055°24'3015.0 190 / 141014.0 13.011.0 8.9
2016-Aug-21 04:00N 52°48' W 055°24'2412.1 240 / 71014.5 13.511.1 9.4
2016-Aug-21 02:00N 52°24' W 055°18'1212.0 200 / 151015.4 15.611.9 9.2
2016-Aug-21 01:00N 52°12' W 055°18'4013.2 210 / 171015.8 12.210.210.2
2016-Aug-20 22:00N 51°42' W 056°00'1919.1 240 / 231016.6 15.613.415.5
2016-Aug-20 21:00N 51°30' W 056°24'1312.7 250 / 211016.9 14.512.612.8
2016-Aug-20 20:00N 51°24' W 056°42'1616.1 220 / 151017.1 17.114.014.8
2016-Aug-20 19:00N 51°18' W 057°06'1616.5 220 / 211017.2 17.914.416.9
2016-Aug-20 18:00N 51°06' W 057°24'1716.5 220 / 181017.7 17.714.817.3
2016-Aug-20 17:00N 50°54' W 057°42'4013.4 220 / 201018.2 16.513.916.0
2016-Aug-20 14:00N 50°24' W 058°24'1716.6 220 / 141019.5 17.513.317.2
2016-Aug-20 13:00N 50°12' W 058°42'10 9.8 220 / 111019.7 16.312.317.3
2016-Aug-20 12:00N 50°06' W 058°54'1517.6 190 / 81019.6 15.611.816.5
2016-Aug-20 11:10N 49°56' W 059°11'213.1
2016-Aug-20 11:00N 49°54' W 059°12'1515.5 170 / 81018.9 15.212.116.6
2016-Aug-20 10:00N 49°54' W 059°36'2713.5 170 / 81018.8 15.513.616.9
2016-Aug-20 08:00N 49°54' W 060°18'1211.6 050 / 21017.9 15.014.515.3
2016-Aug-20 07:00N 49°54' W 060°36'2713.5 010 / 51017.8 13.913.514.8
2016-Aug-20 05:00N 49°54' W 061°18'1515.5 350 / 81017.2 13.212.813.5
2016-Aug-20 04:00N 49°54' W 061°42'1211.6 350 / 111017.5 13.112.412.2
2016-Aug-20 03:00N 49°54' W 062°00'1515.5 350 / 81017.2 13.912.514.1
2016-Aug-20 02:00N 49°54' W 062°24'1211.6 010 / 71016.8 13.513.113.8
2016-Aug-20 01:00N 49°54' W 062°42'3115.5 060 / 51016.5 15.013.215.2
2016-Aug-19 23:00N 49°54' W 063°30'3115.7 080 / 31015.7 15.113.013.3
2016-Aug-19 21:00N 50°00' W 064°18'5313.4 070 / 101014.5 16.113.715.2
2016-Aug-19 17:00N 49°42' W 065°36'3014.9 070 / 81013.6 14.713.613.6
2016-Aug-19 15:00N 49°30' W 066°18'1313.2 050 / 81013.0 15.814.215.3
2016-Aug-19 14:00N 49°24' W 066°36'1313.2 350 / 121012.3 16.113.014.4
2016-Aug-19 13:00N 49°18' W 066°54'1313.2 340 / 151011.4 16.011.914.1
2016-Aug-19 12:00N 49°12' W 067°12'1313.2 310 / 121011.4 15.411.1 9.7
2016-Aug-19 11:00N 49°06' W 067°30'1716.8 300 / 161011.1 15.011.613.7
2016-Aug-19 10:00N 48°54' W 067°48'1313.3 290 / 151010.8 15.011.915.0
2016-Aug-19 09:00N 48°48' W 068°06'2713.3 290 / 171010.7 14.511.013.3
2016-Aug-19 07:00N 48°36' W 068°42'1716.9 290 / 141010.7 15.910.211.4
2016-Aug-19 06:00N 48°24' W 069°00'1313.4 290 / 91011.0 17.010.111.7
2016-Aug-19 05:00N 48°18' W 069°18'1010.0 320 / 101011.5 17.710.4 9.7
2016-Aug-19 04:00N 48°12' W 069°30'2713.4 290 / 131011.1 19.412.2 8.6
2016-Aug-19 02:00N 47°48' W 069°48'1717.1 310 / 111011.1 21.411.511.6
2016-Aug-19 01:00N 47°36' W 070°06'1717.1 270 / 81012.3 21.010.610.1
2016-Aug-19 00:00N 47°24' W 070°24'3612.1 320 / 101011.5 22.910.413.1
2016-Aug-18 21:00N 46°54' W 070°54'1010.2 260 / 171010.7 26.811.623.5
2016-Aug-18 20:00N 46°48' W 071°06'5513.7 270 / 171010.9 26.811.423.7
2016-Aug-18 16:00N 46°24' W 072°18'1413.8 320 / 10 23.016.323.7
2016-Aug-18 15:00N 46°18' W 072°36'4 8.9 300 / 9 22.917.023.8
2016-Aug-18 14:32N 46°16' W 072°41'1414.3
2016-Aug-18 13:33N 46°08' W 072°57'611.0
2016-Aug-18 13:00N 46°06' W 073°06'819.1 290 / 4 21.018.923.9
2016-Aug-18 12:34N 45°59' W 073°11'711.5
2016-Aug-18 12:00N 45°54' W 073°18'817.7 260 / 6 20.417.624.2
2016-Aug-18 11:34N 45°47' W 073°22'713.2
2016-Aug-18 11:00N 45°42' W 073°30'511.7 240 / 9 21.316.724.0
2016-Aug-18 10:33N 45°37' W 073°30'1 1.6
2016-Aug-18 10:00N 45°36' W 073°30'1 2.1 230 / 4 21.216.7
2016-Aug-18 09:29N 45°37' W 073°30'1 2.2
2016-Aug-18 09:00N 45°36' W 073°30'1 2.1 230 / 7 21.816.4
2016-Aug-18 08:29N 45°37' W 073°30'0 0.0
2016-Aug-18 07:26N 45°37' W 073°30'0 0.0
2016-Aug-18 06:32N 45°37' W 073°30'1 2.0
2016-Aug-18 06:00N 45°36' W 073°30'1 2.1 240 / 6 22.817.9
2016-Aug-18 05:29N 45°37' W 073°30'0 0.0
2016-Aug-18 04:29N 45°37' W 073°30'1 2.2
2016-Aug-18 04:00N 45°36' W 073°30'1 2.1 230 / 8 24.216.8
2016-Aug-18 03:29N 45°37' W 073°30'0 0.0
2016-Aug-18 02:29N 45°37' W 073°30'0 0.0
2016-Aug-18 01:17N 45°37' W 073°30'1 3.6
2016-Aug-18 01:00N 45°36' W 073°30'1 2.4 240 / 7 25.116.4
2016-Aug-18 00:32N 45°37' W 073°30'0 0.0
2016-Aug-17 23:32N 45°37' W 073°30'1 2.0
2016-Aug-17 23:00N 45°36' W 073°30'   250 / 12 26.516.1

Dump ship's entire track history